Terminal Aerodrome Forecast
Issued by NWS Duluth, MN

Home | Current Version | Previous Version | Text Only | Print | Product List | Glossary On
Versions: 1 2 3 4 5 6 7 8 9 10 11 12 13 14 15 16 17 18 19 20 21
000
FTUS43 KDLH 211748
TAFINL
TAF
KINL 211748Z 2118/2218 16004KT P6SM BKN005
     FM212100 20004KT P6SM BKN012
     FM220400 04004KT 5SM -SHRA BR OVC004
     FM220800 06003KT 2SM -SHRA BR OVC003
     FM221600 05004KT P6SM VCSH OVC003=

USA.gov is the U.S. government's official web portal to all federal, state and local government web resources and services.